createdAt,value
2023-07-08T00:01:51.312Z,1.00
2023-07-08T00:06:55.393Z,1.00
2023-07-08T00:11:58.345Z,1.00
2023-07-08T00:17:01.170Z,1.00
2023-07-08T00:22:13.967Z,1.00
2023-07-08T00:27:16.747Z,1.00
2023-07-08T00:32:19.531Z,1.00
2023-07-08T00:37:23.541Z,99.90
2023-07-08T00:42:26.882Z,99.90
2023-07-08T00:47:29.674Z,99.90
2023-07-08T00:52:33.710Z,1.00
2023-07-08T00:57:40.172Z,1.00
2023-07-08T01:02:47.587Z,1.00
2023-07-08T01:07:56.062Z,1.00
2023-07-08T01:13:03.823Z,15.30
2023-07-08T01:18:08.149Z,99.90
2023-07-08T01:23:13.337Z,99.90
2023-07-08T01:28:16.760Z,99.90
2023-07-08T01:33:22.982Z,1.00
2023-07-08T01:38:29.895Z,1.00
2023-07-08T01:43:32.683Z,1.00
2023-07-08T01:48:39.713Z,1.00
2023-07-08T01:53:44.988Z,37.70
2023-07-08T01:58:47.738Z,38.60
2023-07-08T02:03:50.428Z,1.00
2023-07-08T02:08:56.014Z,1.00
2023-07-08T02:13:58.802Z,1.00
2023-07-08T02:19:01.509Z,1.00
2023-07-08T02:24:06.134Z,1.00
2023-07-08T02:29:08.936Z,1.00
2023-07-08T02:34:11.803Z,99.90
2023-07-08T02:39:15.814Z,99.90
2023-07-08T02:44:18.532Z,99.90
2023-07-08T02:49:21.279Z,99.90
2023-07-08T02:54:25.446Z,99.90
2023-07-08T02:59:29.415Z,99.90
2023-07-08T03:04:32.182Z,99.90
2023-07-08T03:09:36.433Z,99.90
2023-07-08T03:14:39.515Z,99.90
2023-07-08T03:19:42.666Z,1.00
2023-07-08T03:24:47.410Z,1.00
2023-07-08T03:29:50.238Z,1.00
2023-07-08T03:34:53.078Z,1.00
2023-07-08T03:39:57.137Z,1.00
2023-07-08T03:44:59.806Z,99.90
2023-07-08T03:50:02.548Z,99.90
2023-07-08T03:55:07.625Z,99.90
2023-07-08T04:00:13.107Z,99.90
2023-07-08T04:05:16.913Z,1.00
2023-07-08T04:10:20.987Z,1.00
2023-07-08T04:15:26.474Z,1.00
2023-07-08T04:20:29.177Z,99.90
2023-07-08T04:25:33.251Z,1.00
2023-07-08T04:30:41.931Z,1.00
2023-07-08T04:35:46.186Z,1.00
2023-07-08T04:40:51.971Z,1.00
2023-07-08T04:45:55.851Z,1.00
2023-07-08T04:50:58.964Z,99.90
2023-07-08T04:56:03.379Z,99.90
2023-07-08T05:01:06.042Z,22.70
2023-07-08T05:06:08.740Z,1.00
2023-07-08T05:11:12.766Z,1.00
2023-07-08T05:16:15.558Z,1.00
2023-07-08T05:21:20.339Z,1.00
2023-07-08T05:26:24.447Z,1.00
2023-07-08T05:31:41.825Z,1.00
2023-07-08T05:36:49.772Z,1.00
2023-07-08T05:41:53.814Z,1.00
2023-07-08T05:46:56.592Z,1.00
2023-07-08T05:51:59.408Z,1.00
2023-07-08T05:57:03.407Z,1.00
2023-07-08T06:02:07.751Z,1.00
2023-07-08T06:07:11.054Z,1.00
2023-07-08T06:12:15.087Z,1.00
2023-07-08T06:17:18.551Z,1.00
2023-07-08T06:22:45.460Z,1.00
2023-07-08T06:27:45.349Z,1.00
2023-07-08T06:32:48.402Z,1.00
2023-07-08T06:38:00.281Z,1.00
2023-07-08T06:43:11.696Z,1.00
2023-07-08T06:48:14.829Z,1.00
2023-07-08T06:53:17.886Z,1.00
2023-07-08T06:58:21.998Z,1.00
2023-07-08T07:03:26.950Z,1.00
2023-07-08T07:08:29.770Z,1.00
2023-07-08T07:13:34.041Z,1.00
2023-07-08T07:18:36.969Z,1.00
2023-07-08T07:23:39.774Z,99.90
2023-07-08T07:28:43.755Z,99.90
2023-07-08T07:33:46.473Z,99.90
2023-07-08T07:38:49.175Z,99.90
2023-07-08T07:43:53.171Z,99.90
2023-07-08T07:48:55.967Z,99.90
2023-07-08T07:53:58.648Z,99.90
2023-07-08T07:59:02.652Z,99.90
2023-07-08T08:04:05.935Z,99.90
2023-07-08T08:09:09.160Z,99.90
2023-07-08T08:14:13.407Z,99.90
2023-07-08T08:19:16.291Z,99.90
2023-07-08T08:24:19.030Z,99.90
2023-07-08T08:29:23.150Z,99.90
2023-07-08T08:34:25.840Z,99.90
2023-07-08T08:39:30.340Z,99.90
2023-07-08T08:44:37.446Z,99.90
2023-07-08T08:49:45.094Z,99.90
2023-07-08T08:54:49.706Z,99.90
2023-07-08T08:59:58.770Z,99.90
2023-07-08T09:05:07.608Z,99.90
2023-07-08T09:10:18.389Z,99.90
2023-07-08T09:15:24.244Z,99.90
2023-07-08T09:20:30.277Z,99.90
2023-07-08T09:25:36.754Z,99.90
2023-07-08T09:30:41.951Z,99.90
2023-07-08T09:35:48.274Z,99.90
2023-07-08T09:40:58.085Z,90.00
2023-07-08T09:46:06.325Z,60.30
2023-07-08T09:51:11.112Z,43.20
2023-07-08T09:56:16.782Z,34.40
2023-07-08T10:01:27.946Z,26.30
2023-07-08T10:06:38.085Z,39.50
2023-07-08T10:11:48.304Z,46.40
2023-07-08T10:16:58.198Z,44.60
2023-07-08T10:22:16.985Z,27.90
2023-07-08T10:27:31.246Z,11.90
2023-07-08T10:32:46.112Z,12.10
2023-07-08T10:38:03.781Z,9.40
2023-07-08T10:43:25.649Z,1.00
2023-07-08T10:48:54.110Z,1.00
2023-07-08T10:54:11.541Z,1.00
2023-07-08T10:59:33.590Z,1.00
2023-07-08T11:04:55.022Z,1.00
2023-07-08T11:10:07.660Z,1.00
2023-07-08T11:15:21.050Z,1.00
2023-07-08T11:20:36.193Z,1.00
2023-07-08T11:25:41.266Z,1.00
2023-07-08T11:30:48.581Z,1.00
2023-07-08T11:35:57.375Z,1.00
2023-07-08T11:41:05.254Z,1.00
2023-07-08T11:46:10.482Z,1.00
2023-07-08T11:51:22.355Z,1.00
2023-07-08T11:56:28.697Z,1.00
2023-07-08T12:01:40.425Z,1.00
2023-07-08T12:06:51.710Z,1.00
2023-07-08T12:12:02.973Z,1.00
2023-07-08T12:17:13.113Z,1.00
2023-07-08T12:22:20.081Z,1.00
2023-07-08T12:27:25.365Z,1.00
2023-07-08T12:32:29.920Z,1.00
2023-07-08T12:37:40.797Z,1.00
2023-07-08T12:42:43.512Z,1.00
2023-07-08T12:47:47.181Z,1.00
2023-07-08T12:52:51.420Z,1.00
2023-07-08T12:57:54.531Z,1.00
2023-07-08T13:03:00.894Z,1.00
2023-07-08T13:08:06.331Z,1.00
2023-07-08T13:13:14.202Z,1.00
2023-07-08T13:18:18.774Z,1.00
2023-07-08T13:23:24.054Z,1.00
2023-07-08T13:28:29.179Z,1.00
2023-07-08T13:33:34.467Z,1.00
2023-07-08T13:38:40.909Z,1.00
2023-07-08T13:43:43.720Z,1.00
2023-07-08T13:48:46.576Z,1.00
2023-07-08T13:53:59.317Z,1.00
2023-07-08T13:59:09.549Z,1.00
2023-07-08T14:04:14.957Z,1.00
2023-07-08T14:09:25.499Z,1.00
2023-07-08T14:14:31.677Z,1.00
2023-07-08T14:19:39.865Z,1.00
2023-07-08T14:24:50.509Z,1.00
2023-07-08T14:29:56.144Z,1.00
2023-07-08T14:35:17.090Z,1.00
2023-07-08T14:40:33.708Z,1.00
2023-07-08T14:45:43.168Z,1.00
2023-07-08T14:50:46.475Z,1.00
2023-07-08T14:55:55.760Z,1.00
2023-07-08T15:01:01.728Z,1.00
2023-07-08T15:06:05.763Z,1.00
2023-07-08T15:11:14.025Z,1.00
2023-07-08T15:16:21.590Z,1.00
2023-07-08T15:21:26.944Z,1.00
2023-07-08T15:26:31.313Z,1.00
2023-07-08T15:31:35.811Z,1.00
2023-07-08T15:36:38.518Z,1.00
2023-07-08T15:41:43.262Z,1.00
2023-07-08T15:46:48.565Z,1.00
2023-07-08T15:51:57.222Z,1.00
2023-07-08T15:57:01.453Z,1.00
2023-07-08T16:02:16.847Z,1.00
2023-07-08T16:07:19.638Z,1.00
2023-07-08T16:12:41.664Z,1.00
2023-07-08T16:17:44.948Z,1.00
2023-07-08T16:22:48.076Z,1.00
2023-07-08T16:27:54.200Z,1.00
2023-07-08T16:32:57.148Z,1.00
2023-07-08T16:37:59.911Z,1.00
2023-07-08T16:43:04.144Z,1.00
2023-07-08T16:48:06.905Z,1.00
2023-07-08T16:53:11.826Z,1.00
2023-07-08T16:58:15.916Z,1.00
2023-07-08T17:03:19.590Z,1.00
2023-07-08T17:08:23.110Z,1.00
2023-07-08T17:13:28.919Z,1.00
2023-07-08T17:18:32.064Z,1.00
2023-07-08T17:23:36.736Z,1.00
2023-07-08T17:28:40.864Z,1.00
2023-07-08T17:33:44.099Z,1.00
2023-07-08T17:38:48.664Z,1.00
2023-07-08T17:43:52.732Z,1.00
2023-07-08T18:36:48.114Z,8.60
2023-07-08T18:42:06.434Z,8.20
2023-07-08T18:47:17.331Z,1.00
2023-07-08T18:58:23.277Z,29.30
2023-07-08T19:03:35.381Z,21.10
2023-07-08T19:08:47.238Z,28.60
2023-07-08T19:13:52.999Z,12.60
2023-07-08T19:19:00.192Z,25.10
2023-07-08T19:24:04.369Z,30.20
2023-07-08T19:29:07.074Z,53.40
2023-07-08T19:34:14.731Z,82.80
2023-07-08T19:39:18.888Z,94.70
2023-07-08T19:44:26.455Z,99.90
2023-07-08T19:49:29.212Z,99.90
2023-07-08T19:54:33.254Z,99.90
2023-07-08T19:59:36.040Z,99.90
2023-07-08T20:04:38.768Z,99.90
2023-07-08T20:09:42.805Z,99.90
2023-07-08T20:14:45.616Z,99.90
2023-07-08T20:19:48.552Z,99.90
2023-07-08T20:24:52.620Z,99.90
2023-07-08T20:29:55.940Z,99.90
2023-07-08T20:34:58.721Z,99.90
2023-07-08T20:40:03.348Z,99.90
2023-07-08T20:45:07.279Z,99.90
2023-07-08T20:50:21.753Z,99.90
2023-07-08T20:55:29.919Z,99.90
2023-07-08T21:00:36.611Z,99.90
2023-07-08T21:05:42.139Z,99.90
2023-07-08T21:10:50.721Z,99.90
2023-07-08T21:15:59.511Z,99.90
2023-07-08T21:21:04.641Z,1.00
2023-07-08T21:26:23.260Z,1.00
2023-07-08T21:31:30.176Z,1.00
2023-07-08T21:36:35.735Z,1.00
2023-07-08T21:41:40.121Z,1.00
2023-07-08T21:46:43.041Z,1.00
2023-07-08T21:51:46.866Z,1.00
2023-07-08T21:56:50.862Z,1.00
2023-07-08T22:01:53.806Z,1.00
2023-07-08T22:06:59.121Z,1.00
2023-07-08T22:12:03.284Z,1.00
2023-07-08T22:17:11.308Z,1.00
2023-07-08T22:22:14.388Z,1.00
2023-07-08T22:27:18.415Z,1.00
2023-07-08T22:32:21.192Z,1.00
2023-07-08T22:37:23.946Z,1.00
2023-07-08T22:42:27.981Z,1.00
2023-07-08T22:47:31.122Z,1.00
2023-07-08T22:52:37.157Z,1.00
2023-07-08T22:57:41.310Z,1.00
2023-07-08T23:02:44.351Z,1.00
2023-07-08T23:07:47.185Z,99.90
2023-07-08T23:12:51.206Z,99.90
2023-07-08T23:17:53.981Z,99.90
2023-07-08T23:22:56.832Z,99.90
2023-07-08T23:28:03.004Z,99.90
2023-07-08T23:33:07.636Z,1.00
2023-07-08T23:38:19.487Z,1.00
2023-07-08T23:43:24.630Z,1.00
2023-07-08T23:48:28.317Z,1.00
2023-07-08T23:53:31.945Z,1.00
2023-07-08T23:58:37.117Z,1.00
